createdAt,value
2022-09-05T00:02:25.000Z,4.94
2022-09-05T00:07:25.000Z,6.55
2022-09-05T00:12:25.000Z,7.03
2022-09-05T00:17:24.000Z,7.11
2022-09-05T00:32:25.000Z,7.28
2022-09-05T00:37:24.000Z,7.11
2022-09-05T00:42:24.000Z,7.03
2022-09-05T00:47:24.000Z,6.91
2022-09-05T00:52:25.000Z,6.73
2022-09-05T00:57:24.000Z,6.79
2022-09-05T01:07:24.000Z,6.08
2022-09-05T01:12:24.000Z,5.69
2022-09-05T01:17:25.000Z,5.62
2022-09-05T01:22:24.000Z,6.15
2022-09-05T01:27:24.000Z,6.54
2022-09-05T01:37:24.000Z,7.55
2022-09-05T01:42:24.000Z,8.79
2022-09-05T01:47:24.000Z,9.1
2022-09-05T01:52:24.000Z,8.14
2022-09-05T01:57:25.000Z,7.12
2022-09-05T02:02:25.000Z,6.19
2022-09-05T02:07:24.000Z,5.73
2022-09-05T02:12:24.000Z,5.64
2022-09-05T02:17:24.000Z,4.98
2022-09-05T02:22:24.000Z,4.35
2022-09-05T02:27:24.000Z,4.16
2022-09-05T02:32:24.000Z,4.4
2022-09-05T02:37:24.000Z,4.13
2022-09-05T02:52:24.000Z,3.73
2022-09-05T03:02:25.000Z,3.79
2022-09-05T03:07:24.000Z,3.47
2022-09-05T03:12:24.000Z,3.4
2022-09-05T03:17:24.000Z,3.56
2022-09-05T03:22:24.000Z,3.39
2022-09-05T03:27:25.000Z,3.33
2022-09-05T03:32:25.000Z,3.42
2022-09-05T03:37:24.000Z,3.42
2022-09-05T03:42:24.000Z,3.48
2022-09-05T03:47:24.000Z,3.72
2022-09-05T03:52:24.000Z,3.32
2022-09-05T04:02:24.000Z,3.19
2022-09-05T04:12:24.000Z,3.08
2022-09-05T04:17:24.000Z,3.11
2022-09-05T04:22:25.000Z,3.05
2022-09-05T04:27:25.000Z,3.52
2022-09-05T04:32:24.000Z,3.06
2022-09-05T04:37:24.000Z,3.2
2022-09-05T04:42:24.000Z,3.1
2022-09-05T04:47:24.000Z,3.11
2022-09-05T04:52:24.000Z,3.16
2022-09-05T04:57:24.000Z,3.1
2022-09-05T05:02:25.000Z,3.25
2022-09-05T05:12:24.000Z,3.08
2022-09-05T05:27:24.000Z,3.29
2022-09-05T05:32:24.000Z,3.15
2022-09-05T05:37:24.000Z,3.17
2022-09-05T05:42:25.000Z,3.04
2022-09-05T05:47:24.000Z,3.06
2022-09-05T05:52:24.000Z,3
2022-09-05T05:57:24.000Z,2.97
2022-09-05T06:02:24.000Z,2.89
2022-09-05T06:07:24.000Z,2.95
2022-09-05T06:22:24.000Z,3.14
2022-09-05T06:27:24.000Z,3.08
2022-09-05T06:32:25.000Z,2.96
2022-09-05T06:37:24.000Z,2.72
2022-09-05T06:42:25.000Z,2.77
2022-09-05T06:47:24.000Z,2.73
2022-09-05T06:52:25.000Z,3.78
2022-09-05T07:02:25.000Z,2.18
2022-09-05T07:07:25.000Z,2.19
2022-09-05T07:12:25.000Z,2.18
2022-09-05T07:17:24.000Z,2
2022-09-05T07:22:24.000Z,1.88
2022-09-05T07:32:25.000Z,2.04
2022-09-05T07:42:25.000Z,1.64
2022-09-05T07:47:24.000Z,1.47
2022-09-05T07:52:25.000Z,1.46
2022-09-05T08:02:24.000Z,1.56
2022-09-05T08:07:24.000Z,1.64
2022-09-05T08:12:24.000Z,1.46
2022-09-05T08:17:25.000Z,1.19
2022-09-05T08:22:25.000Z,1.27
2022-09-05T08:27:24.000Z,1.31
2022-09-05T08:32:24.000Z,1.33
2022-09-05T08:37:25.000Z,1.24
2022-09-05T08:42:25.000Z,1.28
2022-09-05T08:47:25.000Z,1.42
2022-09-05T08:52:24.000Z,1.55
2022-09-05T08:57:24.000Z,1.68
2022-09-05T09:02:25.000Z,1.87
2022-09-05T09:07:25.000Z,1.75
2022-09-05T09:12:24.000Z,2.05
2022-09-05T09:17:24.000Z,1.47
2022-09-05T09:22:25.000Z,1.42
2022-09-05T09:27:24.000Z,1.35
2022-09-05T09:37:25.000Z,1.34
2022-09-05T09:42:24.000Z,1.4
2022-09-05T09:47:24.000Z,1.35
2022-09-05T09:52:24.000Z,1.35
2022-09-05T09:57:24.000Z,1.48
2022-09-05T10:02:24.000Z,1.89
2022-09-05T10:17:24.000Z,1.95
2022-09-05T10:22:24.000Z,1.86
2022-09-05T10:27:24.000Z,1.63
2022-09-05T10:32:24.000Z,1.74
2022-09-05T10:42:25.000Z,1.82
2022-09-05T10:47:24.000Z,1.7
2022-09-05T10:57:25.000Z,1.61
2022-09-05T11:02:25.000Z,1.7
2022-09-05T11:07:25.000Z,1.69
2022-09-05T11:12:25.000Z,1.75
2022-09-05T11:17:25.000Z,1.71
2022-09-05T11:22:24.000Z,1.48
2022-09-05T11:27:25.000Z,1.52
2022-09-05T11:32:24.000Z,1.63
2022-09-05T11:47:24.000Z,1.75
2022-09-05T11:52:24.000Z,1.79
2022-09-05T11:57:25.000Z,1.78
2022-09-05T12:02:24.000Z,1.81
2022-09-05T12:07:25.000Z,1.74
2022-09-05T12:12:24.000Z,1.77
2022-09-05T12:17:25.000Z,1.65
2022-09-05T12:22:25.000Z,1.69
2022-09-05T12:27:25.000Z,1.82
2022-09-05T12:47:24.000Z,1.8
2022-09-05T12:52:24.000Z,1.77
2022-09-05T12:57:25.000Z,1.66
2022-09-05T13:07:24.000Z,1.72
2022-09-05T13:12:25.000Z,1.79
2022-09-05T13:22:24.000Z,1.79
2022-09-05T13:27:25.000Z,2.16
2022-09-05T13:32:25.000Z,2.02
2022-09-05T13:42:24.000Z,2.1
2022-09-05T13:52:25.000Z,2.1
2022-09-05T13:57:24.000Z,2.42
2022-09-05T14:02:24.000Z,2.19
2022-09-05T14:07:25.000Z,2.23
2022-09-05T14:12:24.000Z,2.15
2022-09-05T14:17:24.000Z,2.12
2022-09-05T14:22:25.000Z,2.33
2022-09-05T14:27:25.000Z,2.49
2022-09-05T14:32:24.000Z,2.98
2022-09-05T14:42:24.000Z,2.76
2022-09-05T14:47:24.000Z,2.67
2022-09-05T14:52:24.000Z,2.49
2022-09-05T14:57:24.000Z,2.76
2022-09-05T15:07:24.000Z,2.52
2022-09-05T15:12:25.000Z,2.62
2022-09-05T15:17:25.000Z,3.74
2022-09-05T15:22:24.000Z,2.57
2022-09-05T15:27:24.000Z,2.64
2022-09-05T15:32:24.000Z,3.72
2022-09-05T15:37:25.000Z,3.29
2022-09-05T15:42:24.000Z,2.83
2022-09-05T15:47:25.000Z,2.56
2022-09-05T15:52:24.000Z,2.59
2022-09-05T15:57:24.000Z,2.69
2022-09-05T16:02:24.000Z,2.66
2022-09-05T16:07:25.000Z,3.13
2022-09-05T16:17:25.000Z,3.93
2022-09-05T16:32:25.000Z,2.98
2022-09-05T16:37:25.000Z,3.22
2022-09-05T16:42:25.000Z,3.44
2022-09-05T16:47:24.000Z,2.95
2022-09-05T16:52:24.000Z,2.88
2022-09-05T16:57:25.000Z,2.5
2022-09-05T17:02:25.000Z,2.49
2022-09-05T17:07:25.000Z,2.48
2022-09-05T17:12:25.000Z,3.01
2022-09-05T17:17:24.000Z,3.28
2022-09-05T17:22:25.000Z,3.8
2022-09-05T17:37:25.000Z,2.32
2022-09-05T17:42:25.000Z,2.17
2022-09-05T17:47:25.000Z,3.68
2022-09-05T17:52:24.000Z,2.56
2022-09-05T17:57:24.000Z,2.21
2022-09-05T18:02:24.000Z,2.37
2022-09-05T18:07:25.000Z,2.19
2022-09-05T18:17:24.000Z,2.06
2022-09-05T18:22:24.000Z,1.98
2022-09-05T18:27:24.000Z,2.33
2022-09-05T18:32:24.000Z,2.57
2022-09-05T18:37:24.000Z,3.06
2022-09-05T18:42:25.000Z,2.58
2022-09-05T18:47:24.000Z,2.47
2022-09-05T18:52:24.000Z,2.63
2022-09-05T18:57:24.000Z,2.32
2022-09-05T19:02:25.000Z,3.07
2022-09-05T19:07:24.000Z,2.91
2022-09-05T19:12:24.000Z,3.87
2022-09-05T19:17:24.000Z,4.84
2022-09-05T19:22:24.000Z,4.81
2022-09-05T19:27:25.000Z,5.25
2022-09-05T19:42:24.000Z,3.43
2022-09-05T19:52:25.000Z,2.9
2022-09-05T19:57:24.000Z,3.22
2022-09-05T20:02:25.000Z,3.13
2022-09-05T20:07:24.000Z,2.55
2022-09-05T20:17:25.000Z,2.63
2022-09-05T20:22:24.000Z,2.63
2022-09-05T20:27:24.000Z,2.49
2022-09-05T20:32:25.000Z,2.69
2022-09-05T20:37:25.000Z,2.57
2022-09-05T20:52:25.000Z,2.55
2022-09-05T21:02:25.000Z,2.56
2022-09-05T21:07:25.000Z,2.47
2022-09-05T21:12:24.000Z,2.51
2022-09-05T21:17:25.000Z,2.95
2022-09-05T21:22:25.000Z,2.71
2022-09-05T21:27:25.000Z,2.6
2022-09-05T21:32:24.000Z,2.59
2022-09-05T21:37:25.000Z,2.52
2022-09-05T21:42:25.000Z,2.62
2022-09-05T21:52:24.000Z,2.56
2022-09-05T22:02:24.000Z,2.44
2022-09-05T22:07:24.000Z,2.38
2022-09-05T22:12:24.000Z,2.35
2022-09-05T22:17:24.000Z,2.4
2022-09-05T22:22:24.000Z,2.48
2022-09-05T22:27:25.000Z,2.48
2022-09-05T22:32:24.000Z,2.37
2022-09-05T22:37:24.000Z,2.35
2022-09-05T22:42:24.000Z,2.32
2022-09-05T22:52:24.000Z,2.39
2022-09-05T22:57:24.000Z,2.37
2022-09-05T23:02:24.000Z,2.33
2022-09-05T23:07:25.000Z,2.43
2022-09-05T23:12:24.000Z,2.36
2022-09-05T23:17:24.000Z,2.29
2022-09-05T23:22:24.000Z,2.25
2022-09-05T23:27:25.000Z,2.46
2022-09-05T23:32:24.000Z,2.41
2022-09-05T23:37:24.000Z,2.72
2022-09-05T23:42:25.000Z,2.49
2022-09-05T23:47:25.000Z,3.11
2022-09-05T23:52:25.000Z,3.09
2022-09-05T23:57:25.000Z,2.7
